createdAt,value
2023-04-26T00:00:45.448Z,993.42
2023-04-26T00:01:45.444Z,993.40
2023-04-26T00:02:45.523Z,993.42
2023-04-26T00:03:46.664Z,993.39
2023-04-26T00:04:46.644Z,993.39
2023-04-26T00:05:45.514Z,993.48
2023-04-26T00:06:45.427Z,993.40
2023-04-26T00:07:45.401Z,993.49
2023-04-26T00:08:45.385Z,993.44
2023-04-26T00:09:45.388Z,993.45
2023-04-26T00:10:45.371Z,993.52
2023-04-26T00:11:45.385Z,993.50
2023-04-26T00:12:45.362Z,993.51
2023-04-26T00:13:45.342Z,993.53
2023-04-26T00:14:45.354Z,993.47
2023-04-26T00:15:45.329Z,993.49
2023-04-26T00:16:45.411Z,993.53
2023-04-26T00:17:45.379Z,993.54
2023-04-26T00:18:45.293Z,993.55
2023-04-26T00:19:45.339Z,993.51
2023-04-26T00:20:45.900Z,993.57
2023-04-26T00:22:37.694Z,993.58
2023-04-26T00:23:37.684Z,993.54
2023-04-26T00:24:37.677Z,993.56
2023-04-26T00:25:37.662Z,993.53
2023-04-26T00:26:37.652Z,993.49
2023-04-26T00:27:37.663Z,993.52
2023-04-26T00:28:37.644Z,993.55
2023-04-26T00:29:37.636Z,993.52
2023-04-26T00:30:37.651Z,993.49
2023-04-26T00:31:37.669Z,993.51
2023-04-26T00:32:37.693Z,993.48
2023-04-26T00:33:37.595Z,993.47
2023-04-26T00:34:37.595Z,993.44
2023-04-26T00:35:37.583Z,993.52
2023-04-26T00:36:37.585Z,993.47
2023-04-26T00:37:37.588Z,993.53
2023-04-26T00:38:37.561Z,993.50
2023-04-26T00:39:37.591Z,993.50
2023-04-26T00:40:38.638Z,993.48
2023-04-26T00:41:38.639Z,993.47
2023-04-26T00:42:38.629Z,993.45
2023-04-26T00:43:38.674Z,993.52
2023-04-26T00:44:38.618Z,993.51
2023-04-26T00:45:38.641Z,993.53
2023-04-26T00:46:38.591Z,993.50
2023-04-26T00:47:39.547Z,993.51
2023-04-26T00:48:38.576Z,993.49
2023-04-26T00:49:38.577Z,993.49
2023-04-26T00:50:38.576Z,993.46
2023-04-26T00:51:38.555Z,993.46
2023-04-26T00:52:38.587Z,993.50
2023-04-26T00:53:38.558Z,993.44
2023-04-26T00:54:38.588Z,993.52
2023-04-26T00:55:38.579Z,993.47
2023-04-26T00:56:38.551Z,993.45
2023-04-26T00:57:38.504Z,993.47
2023-04-26T00:58:38.521Z,993.51
2023-04-26T00:59:38.516Z,993.47
2023-04-26T01:00:38.516Z,993.48
2023-04-26T01:01:38.607Z,993.44
2023-04-26T01:02:38.635Z,993.50
2023-04-26T01:03:38.651Z,993.50
2023-04-26T01:04:38.662Z,993.51
2023-04-26T01:05:38.454Z,993.47
2023-04-26T01:06:38.451Z,993.49
2023-04-26T01:07:38.441Z,993.47
2023-04-26T01:08:38.429Z,993.47
2023-04-26T01:09:38.423Z,993.45
2023-04-26T01:10:38.424Z,993.45
2023-04-26T01:11:38.395Z,993.48
2023-04-26T01:12:38.668Z,993.48
2023-04-26T01:13:38.431Z,993.47
2023-04-26T01:14:38.385Z,993.46
2023-04-26T01:15:38.382Z,993.53
2023-04-26T01:16:38.419Z,993.55
2023-04-26T01:17:38.419Z,993.49
2023-04-26T01:18:38.371Z,993.55
2023-04-26T01:19:38.386Z,993.51
2023-04-26T01:20:38.353Z,993.51
2023-04-26T01:21:38.327Z,993.56
2023-04-26T01:22:38.334Z,993.58
2023-04-26T01:23:38.305Z,993.52
2023-04-26T01:24:38.316Z,993.58
2023-04-26T01:25:38.305Z,993.54
2023-04-26T01:26:39.040Z,993.58
2023-04-26T01:27:40.133Z,993.60
2023-04-26T01:28:38.277Z,993.54
2023-04-26T01:29:38.296Z,993.59
2023-04-26T01:30:38.330Z,993.53
2023-04-26T01:31:39.060Z,993.57
2023-04-26T01:32:38.301Z,993.56
2023-04-26T01:33:38.235Z,993.51
2023-04-26T01:34:38.248Z,993.56
2023-04-26T01:35:38.242Z,993.54
2023-04-26T01:36:38.230Z,993.54
2023-04-26T01:37:38.220Z,993.55
2023-04-26T01:38:38.195Z,993.56
2023-04-26T01:39:38.189Z,993.57
2023-04-26T01:40:38.196Z,993.52
2023-04-26T01:41:38.183Z,993.51
2023-04-26T01:42:38.148Z,993.49
2023-04-26T01:43:38.160Z,993.51
2023-04-26T01:44:38.161Z,993.47
2023-04-26T01:45:38.130Z,993.50
2023-04-26T01:46:38.179Z,993.43
2023-04-26T01:47:39.189Z,993.47
2023-04-26T01:48:38.112Z,993.47
2023-04-26T01:49:38.119Z,993.46
2023-04-26T01:50:38.640Z,993.48
2023-04-26T01:51:38.111Z,993.51
2023-04-26T01:52:38.091Z,993.49
2023-04-26T01:53:38.083Z,993.46
2023-04-26T01:54:38.076Z,993.45
2023-04-26T01:55:38.054Z,993.48
2023-04-26T01:56:38.762Z,993.52
2023-04-26T01:57:38.077Z,993.47
2023-04-26T01:58:38.044Z,993.51
2023-04-26T01:59:38.025Z,993.55
2023-04-26T02:00:38.007Z,993.59
2023-04-26T02:01:38.048Z,993.56
2023-04-26T02:02:38.124Z,993.54
2023-04-26T02:03:38.015Z,993.56
2023-04-26T02:04:38.026Z,993.53
2023-04-26T02:05:37.985Z,993.55
2023-04-26T02:06:37.989Z,993.56
2023-04-26T02:07:37.945Z,993.57
2023-04-26T02:08:37.967Z,993.55
2023-04-26T02:09:37.947Z,993.61
2023-04-26T02:10:37.954Z,993.60
2023-04-26T02:11:37.949Z,993.53
2023-04-26T02:12:37.930Z,993.56
2023-04-26T02:13:37.914Z,993.62
2023-04-26T02:14:37.912Z,993.65
2023-04-26T02:15:38.010Z,993.61
2023-04-26T02:16:37.906Z,993.58
2023-04-26T02:17:37.949Z,993.57
2023-04-26T02:18:37.872Z,993.57
2023-04-26T02:19:37.903Z,993.56
2023-04-26T02:20:37.863Z,993.55
2023-04-26T02:21:38.633Z,993.55
2023-04-26T02:22:37.853Z,993.57
2023-04-26T02:23:37.828Z,993.58
2023-04-26T02:24:37.832Z,993.58
2023-04-26T02:25:37.819Z,993.60
2023-04-26T02:26:37.842Z,993.58
2023-04-26T02:27:37.809Z,993.64
2023-04-26T02:28:37.790Z,993.61
2023-04-26T02:29:44.229Z,993.59
2023-04-26T02:30:39.790Z,993.61
2023-04-26T02:31:37.814Z,993.65
2023-04-26T02:32:37.783Z,993.60
2023-04-26T02:33:37.761Z,993.60
2023-04-26T02:34:37.755Z,993.61
2023-04-26T02:35:37.754Z,993.62
2023-04-26T02:36:37.734Z,993.60
2023-04-26T02:37:37.732Z,993.58
2023-04-26T02:38:37.759Z,993.61
2023-04-26T02:39:37.698Z,993.51
2023-04-26T02:40:37.708Z,993.64
2023-04-26T02:41:37.688Z,993.58
2023-04-26T02:42:37.679Z,993.49
2023-04-26T02:43:37.678Z,993.54
2023-04-26T02:44:37.672Z,993.62
2023-04-26T02:45:37.667Z,993.60
2023-04-26T02:46:38.590Z,993.56
2023-04-26T02:47:37.675Z,993.60
2023-04-26T02:48:37.624Z,993.59
2023-04-26T02:49:37.668Z,993.65
2023-04-26T02:50:37.611Z,993.58
2023-04-26T02:51:37.626Z,993.62
2023-04-26T02:52:37.620Z,993.58
2023-04-26T02:53:37.615Z,993.61
2023-04-26T02:54:41.326Z,993.55
2023-04-26T02:55:37.585Z,993.53
2023-04-26T02:56:37.609Z,993.52
2023-04-26T02:57:38.148Z,993.57
2023-04-26T02:58:37.582Z,993.56
2023-04-26T02:59:37.597Z,993.57
2023-04-26T03:00:37.624Z,993.59
2023-04-26T03:01:37.607Z,993.60
2023-04-26T03:02:37.649Z,993.56
2023-04-26T03:03:37.837Z,993.48
2023-04-26T03:04:37.498Z,993.65
2023-04-26T03:05:37.509Z,993.56
2023-04-26T03:06:37.546Z,993.53
2023-04-26T03:07:37.494Z,993.57
2023-04-26T03:08:37.466Z,993.61
2023-04-26T03:09:38.468Z,993.63
2023-04-26T03:10:37.481Z,993.58
2023-04-26T03:11:37.463Z,993.66
2023-04-26T03:12:37.456Z,993.66
2023-04-26T03:13:39.094Z,993.63
2023-04-26T03:14:37.438Z,993.63
2023-04-26T03:15:37.418Z,993.60
2023-04-26T03:16:37.423Z,993.60
2023-04-26T03:17:37.430Z,993.62
2023-04-26T03:18:37.399Z,993.60
2023-04-26T03:19:37.402Z,993.62
2023-04-26T03:20:37.400Z,993.69
2023-04-26T03:21:37.387Z,993.66
2023-04-26T03:22:37.392Z,993.62
2023-04-26T03:23:37.363Z,993.65
2023-04-26T03:24:37.334Z,993.65
2023-04-26T03:25:37.329Z,993.60
2023-04-26T03:26:37.338Z,993.63
2023-04-26T03:27:37.359Z,993.66
2023-04-26T03:28:37.324Z,993.62
2023-04-26T03:29:37.295Z,993.64
2023-04-26T03:30:37.347Z,993.69
2023-04-26T03:31:37.306Z,993.71
2023-04-26T03:32:37.313Z,993.67
2023-04-26T03:33:37.284Z,993.64
2023-04-26T03:34:37.285Z,993.64
2023-04-26T03:35:37.294Z,993.64
2023-04-26T03:36:38.081Z,993.62
2023-04-26T03:37:37.249Z,993.66
2023-04-26T03:38:37.235Z,993.62
2023-04-26T03:39:37.246Z,993.60
2023-04-26T03:40:37.214Z,993.63
2023-04-26T03:41:37.232Z,993.63
2023-04-26T03:42:37.202Z,993.64
2023-04-26T03:43:37.180Z,993.63
2023-04-26T03:44:38.203Z,993.61
2023-04-26T03:45:37.213Z,993.61
2023-04-26T03:46:37.158Z,993.61
2023-04-26T03:47:37.180Z,993.67
2023-04-26T03:48:37.198Z,993.70
2023-04-26T03:49:37.180Z,993.67
2023-04-26T03:50:37.133Z,993.65
2023-04-26T03:51:37.143Z,993.66
2023-04-26T03:52:37.113Z,993.64
2023-04-26T03:53:37.096Z,993.65
2023-04-26T03:54:37.164Z,993.72
2023-04-26T03:55:37.082Z,993.68
2023-04-26T03:56:37.142Z,993.73
2023-04-26T03:57:37.069Z,993.71
2023-04-26T03:58:37.080Z,993.74
2023-04-26T03:59:37.059Z,993.74
2023-04-26T04:00:37.061Z,993.68
2023-04-26T04:01:37.049Z,993.73
2023-04-26T04:02:37.173Z,993.75
2023-04-26T04:03:40.044Z,993.69
2023-04-26T04:04:38.109Z,993.74
2023-04-26T04:05:37.117Z,993.75
2023-04-26T04:06:37.018Z,993.76
2023-04-26T04:07:36.993Z,993.65
2023-04-26T04:08:37.581Z,993.72
2023-04-26T04:09:37.004Z,993.64
2023-04-26T04:10:39.677Z,993.64
2023-04-26T04:11:36.980Z,993.59
2023-04-26T04:12:36.956Z,993.65
2023-04-26T04:13:36.975Z,993.62
2023-04-26T04:14:36.946Z,993.61
2023-04-26T04:15:37.037Z,993.62
2023-04-26T04:16:37.050Z,993.56
2023-04-26T04:17:38.542Z,993.67
2023-04-26T04:18:37.917Z,993.69
2023-04-26T04:19:36.894Z,993.66
2023-04-26T04:20:37.572Z,993.68
2023-04-26T04:21:36.896Z,993.71
2023-04-26T04:22:36.887Z,993.68
2023-04-26T04:23:36.894Z,993.72
2023-04-26T04:24:36.857Z,993.62
2023-04-26T04:25:36.869Z,993.63
2023-04-26T04:26:36.961Z,993.60
2023-04-26T04:27:37.569Z,993.63
2023-04-26T04:28:36.832Z,993.62
2023-04-26T04:29:36.836Z,993.63
2023-04-26T04:30:36.835Z,993.64
2023-04-26T04:31:37.704Z,993.64
2023-04-26T04:32:37.821Z,993.67
2023-04-26T04:33:36.784Z,993.68
2023-04-26T04:34:36.790Z,993.73
2023-04-26T04:35:36.767Z,993.76
2023-04-26T04:36:36.772Z,993.76
2023-04-26T04:37:37.582Z,993.77
2023-04-26T04:38:38.700Z,993.80
2023-04-26T04:39:36.753Z,993.83
2023-04-26T04:40:36.731Z,993.84
2023-04-26T04:41:36.732Z,993.92
2023-04-26T04:42:36.725Z,993.96
2023-04-26T04:43:36.728Z,993.90
2023-04-26T04:44:36.730Z,993.87
2023-04-26T04:45:36.754Z,993.92
2023-04-26T04:46:36.710Z,993.99
2023-04-26T04:47:36.682Z,993.95
2023-04-26T04:48:36.706Z,993.98
2023-04-26T04:49:36.657Z,993.99
2023-04-26T04:50:36.653Z,994.03
2023-04-26T04:51:36.651Z,994.10
2023-04-26T04:52:38.643Z,994.08
2023-04-26T04:53:36.661Z,994.12
2023-04-26T04:54:36.650Z,994.17
2023-04-26T04:55:36.627Z,994.10
2023-04-26T04:56:36.614Z,994.17
2023-04-26T04:57:36.611Z,994.11
2023-04-26T04:58:36.720Z,994.17
2023-04-26T04:59:36.581Z,994.18
2023-04-26T05:00:37.187Z,994.18
2023-04-26T05:01:36.592Z,994.18
2023-04-26T05:02:37.344Z,994.22
2023-04-26T05:03:36.692Z,994.24
2023-04-26T05:04:36.824Z,994.29
2023-04-26T05:05:36.537Z,994.21
2023-04-26T05:06:36.521Z,994.24
2023-04-26T05:07:36.540Z,994.19
2023-04-26T05:08:36.543Z,994.35
2023-04-26T05:09:36.503Z,994.22
2023-04-26T05:10:36.491Z,994.27
2023-04-26T05:11:36.494Z,994.33
2023-04-26T05:12:36.487Z,994.36
2023-04-26T05:13:36.483Z,994.43
2023-04-26T05:14:36.485Z,994.38
2023-04-26T05:15:36.471Z,994.41
2023-04-26T05:16:36.491Z,994.39
2023-04-26T05:17:36.532Z,994.36
2023-04-26T05:18:36.488Z,994.40
2023-04-26T05:19:36.443Z,994.43
2023-04-26T05:20:36.430Z,994.46
2023-04-26T05:21:36.516Z,994.47
2023-04-26T05:22:36.450Z,994.53
2023-04-26T05:23:36.394Z,994.49
2023-04-26T05:24:36.474Z,994.52
2023-04-26T05:25:36.451Z,994.48
2023-04-26T05:26:36.370Z,994.48
2023-04-26T05:27:36.379Z,994.56
2023-04-26T05:28:36.389Z,994.47
2023-04-26T05:29:36.373Z,994.52
2023-04-26T05:30:36.340Z,994.51
2023-04-26T05:31:36.393Z,994.51
2023-04-26T05:32:36.335Z,994.52
2023-04-26T05:33:36.325Z,994.52
2023-04-26T05:34:36.309Z,994.53
2023-04-26T05:35:36.299Z,994.60
2023-04-26T05:36:36.302Z,994.59
2023-04-26T05:37:36.337Z,994.64
2023-04-26T05:38:36.291Z,994.60
2023-04-26T05:39:36.286Z,994.58
2023-04-26T05:40:36.285Z,994.60
2023-04-26T05:41:36.315Z,994.67
2023-04-26T05:42:37.268Z,994.71
2023-04-26T05:43:36.264Z,994.76
2023-04-26T05:44:36.249Z,994.80
2023-04-26T05:45:36.273Z,994.70
2023-04-26T05:46:36.239Z,994.76
2023-04-26T05:47:37.223Z,994.79
2023-04-26T05:48:36.212Z,994.73
2023-04-26T05:49:36.201Z,994.74
2023-04-26T05:50:37.277Z,994.73
2023-04-26T05:51:36.169Z,994.66
2023-04-26T05:52:36.168Z,994.76
2023-04-26T05:53:36.174Z,994.70
2023-04-26T05:54:36.189Z,994.68
2023-04-26T05:55:36.146Z,994.73
2023-04-26T05:56:36.129Z,994.75
2023-04-26T05:57:36.219Z,994.68
2023-04-26T05:58:36.152Z,994.74
2023-04-26T05:59:36.148Z,994.70
2023-04-26T06:00:36.118Z,994.73
2023-04-26T06:01:36.094Z,994.81
2023-04-26T06:02:36.270Z,994.77
2023-04-26T06:03:36.433Z,994.74
2023-04-26T06:04:36.187Z,994.80
2023-04-26T06:05:36.079Z,994.77
2023-04-26T06:06:36.054Z,994.78
2023-04-26T06:07:36.050Z,994.83
2023-04-26T06:08:36.037Z,994.81
2023-04-26T06:09:36.013Z,994.83
2023-04-26T06:10:36.041Z,994.87
2023-04-26T06:11:36.007Z,994.81
2023-04-26T06:12:36.018Z,994.82
2023-04-26T06:13:35.997Z,994.84
2023-04-26T06:14:35.976Z,994.84
2023-04-26T06:15:35.975Z,994.87
2023-04-26T06:16:35.977Z,994.84
2023-04-26T06:17:36.029Z,994.87
2023-04-26T06:18:38.696Z,994.86
2023-04-26T06:19:35.966Z,994.87
2023-04-26T06:20:35.972Z,994.92
2023-04-26T06:21:35.946Z,994.82
2023-04-26T06:22:35.917Z,994.90
2023-04-26T06:23:35.905Z,994.92
2023-04-26T06:24:35.933Z,994.92
2023-04-26T06:25:35.927Z,994.89
2023-04-26T06:26:35.900Z,994.90
2023-04-26T06:27:35.916Z,994.90
2023-04-26T06:29:43.405Z,994.96
2023-04-26T06:30:43.403Z,994.91
2023-04-26T06:31:44.482Z,994.90
2023-04-26T06:32:44.545Z,994.96
2023-04-26T06:33:44.980Z,994.93
2023-04-26T06:34:44.462Z,994.99
2023-04-26T06:35:44.477Z,995.03
2023-04-26T06:36:45.935Z,995.08
2023-04-26T06:37:44.943Z,994.98
2023-04-26T06:38:44.429Z,995.03
2023-04-26T06:39:44.408Z,994.99
2023-04-26T06:40:44.419Z,995.03
2023-04-26T06:41:45.361Z,995.05
2023-04-26T06:42:44.432Z,995.05
2023-04-26T06:43:44.380Z,995.11
2023-04-26T06:44:44.416Z,995.15
2023-04-26T06:45:44.386Z,995.05
2023-04-26T06:46:44.423Z,995.04
2023-04-26T06:47:44.899Z,995.07
2023-04-26T06:48:44.364Z,995.02
2023-04-26T06:49:44.979Z,995.05
2023-04-26T06:50:44.324Z,995.08
2023-04-26T06:51:44.374Z,995.11
2023-04-26T06:52:44.319Z,995.12
2023-04-26T06:53:44.342Z,995.12
2023-04-26T06:54:56.045Z,995.14
2023-04-26T06:55:46.301Z,995.13
2023-04-26T06:56:44.296Z,995.14
2023-04-26T06:57:44.318Z,995.08
2023-04-26T06:58:56.901Z,995.09
2023-04-26T06:59:44.272Z,995.11
2023-04-26T07:00:44.248Z,995.10
2023-04-26T07:01:44.304Z,995.06
2023-04-26T07:02:44.359Z,995.01
2023-04-26T07:03:44.330Z,995.02
2023-04-26T07:04:44.520Z,994.98
2023-04-26T07:05:44.242Z,995.00
2023-04-26T07:06:44.261Z,995.02
2023-04-26T07:07:44.222Z,994.93
2023-04-26T07:08:44.219Z,994.93
2023-04-26T07:09:44.532Z,994.94
2023-04-26T07:10:44.171Z,994.95
2023-04-26T07:11:44.201Z,994.99
2023-04-26T07:12:44.201Z,995.03
2023-04-26T07:13:44.158Z,994.98
2023-04-26T07:14:44.877Z,995.04
2023-04-26T07:15:44.167Z,994.99
2023-04-26T07:16:44.510Z,994.96
2023-04-26T07:17:44.912Z,995.01
2023-04-26T07:19:31.851Z,994.96
2023-04-26T07:20:31.240Z,994.96
2023-04-26T07:21:31.248Z,994.97
2023-04-26T07:22:31.209Z,994.89
2023-04-26T07:23:31.216Z,994.95
2023-04-26T07:24:31.203Z,994.94
2023-04-26T07:25:31.207Z,995.00
2023-04-26T07:26:31.183Z,994.98
2023-04-26T07:27:32.270Z,994.92
2023-04-26T07:28:32.275Z,994.98
2023-04-26T07:29:32.265Z,994.98
2023-04-26T07:30:32.264Z,994.95
2023-04-26T07:31:32.250Z,994.94
2023-04-26T07:32:32.272Z,994.95
2023-04-26T07:33:32.363Z,994.93
2023-04-26T07:34:32.887Z,994.91
2023-04-26T07:35:32.216Z,995.00
2023-04-26T07:36:32.202Z,994.91
2023-04-26T07:37:32.358Z,994.90
2023-04-26T07:38:32.193Z,994.92
2023-04-26T07:39:32.244Z,994.90
2023-04-26T07:40:32.183Z,994.89
2023-04-26T07:41:32.187Z,994.87
2023-04-26T07:42:32.158Z,994.88
2023-04-26T07:43:32.141Z,994.88
2023-04-26T07:44:32.139Z,994.87
2023-04-26T07:45:32.147Z,994.89
2023-04-26T07:46:32.121Z,994.85
2023-04-26T07:47:32.191Z,994.94
2023-04-26T07:48:32.100Z,994.82
2023-04-26T07:49:32.098Z,994.84
2023-04-26T07:50:32.081Z,994.90
2023-04-26T07:51:32.080Z,994.89
2023-04-26T07:52:32.078Z,994.85
2023-04-26T07:53:32.112Z,994.83
2023-04-26T07:54:32.059Z,994.85
2023-04-26T07:55:32.061Z,994.82
2023-04-26T07:56:33.972Z,994.78
2023-04-26T07:57:32.050Z,994.73
2023-04-26T07:58:33.888Z,994.75
2023-04-26T07:59:32.056Z,994.76
2023-04-26T08:00:32.019Z,994.68
2023-04-26T08:01:32.006Z,994.76
2023-04-26T08:02:44.076Z,994.77
2023-04-26T08:03:35.285Z,994.77
2023-04-26T08:04:32.085Z,994.76
2023-04-26T08:05:32.277Z,994.77
2023-04-26T08:06:31.991Z,994.67
2023-04-26T08:07:31.988Z,994.72
2023-04-26T08:08:31.971Z,994.78
2023-04-26T08:09:31.964Z,994.76
2023-04-26T08:10:32.475Z,994.73
2023-04-26T08:11:33.028Z,994.72
2023-04-26T08:12:31.944Z,994.72
2023-04-26T08:13:31.928Z,994.70
2023-04-26T08:14:31.901Z,994.80
2023-04-26T08:15:31.897Z,994.79
2023-04-26T08:16:31.986Z,994.75
2023-04-26T08:17:32.929Z,994.72
2023-04-26T08:18:31.863Z,994.73
2023-04-26T08:19:31.977Z,994.68
2023-04-26T08:20:31.863Z,994.77
2023-04-26T08:21:32.479Z,994.80
2023-04-26T08:22:31.836Z,994.75
2023-04-26T08:23:31.857Z,994.69
2023-04-26T08:24:31.835Z,994.69
2023-04-26T08:25:32.178Z,994.66
2023-04-26T08:26:31.823Z,994.64
2023-04-26T08:27:31.813Z,994.65
2023-04-26T08:28:31.829Z,994.64
2023-04-26T08:29:31.813Z,994.64
2023-04-26T08:30:33.559Z,994.65
2023-04-26T08:31:31.926Z,994.71
2023-04-26T08:32:31.820Z,994.70
2023-04-26T08:33:31.802Z,994.69
2023-04-26T08:34:31.768Z,994.67
2023-04-26T08:35:31.749Z,994.64
2023-04-26T08:36:31.743Z,994.69
2023-04-26T08:37:31.782Z,994.68
2023-04-26T08:38:31.738Z,994.69
2023-04-26T08:39:31.768Z,994.70
2023-04-26T08:40:32.517Z,994.74
2023-04-26T08:41:31.713Z,994.72
2023-04-26T08:42:31.708Z,994.75
2023-04-26T08:43:31.698Z,994.66
2023-04-26T08:44:32.396Z,994.68
2023-04-26T08:45:32.481Z,994.69
2023-04-26T08:46:31.739Z,994.70
2023-04-26T08:47:31.808Z,994.72
2023-04-26T08:48:31.630Z,994.74
2023-04-26T08:49:31.617Z,994.72
2023-04-26T08:50:31.628Z,994.73
2023-04-26T08:51:31.639Z,994.74
2023-04-26T08:52:31.650Z,994.73
2023-04-26T08:53:31.619Z,994.78
2023-04-26T08:54:31.624Z,994.81
2023-04-26T08:55:31.609Z,994.79
2023-04-26T08:56:32.398Z,994.80
2023-04-26T08:57:31.628Z,994.77
2023-04-26T08:58:31.661Z,994.72
2023-04-26T08:59:31.572Z,994.70
2023-04-26T09:00:31.592Z,994.71
2023-04-26T09:01:31.556Z,994.71
2023-04-26T09:02:31.677Z,994.71
2023-04-26T09:03:31.729Z,994.67
2023-04-26T09:04:31.769Z,994.69
2023-04-26T09:05:32.524Z,994.67
2023-04-26T09:06:31.566Z,994.66
2023-04-26T09:07:32.530Z,994.65
2023-04-26T09:08:31.520Z,994.57
2023-04-26T09:09:31.476Z,994.56
2023-04-26T09:10:31.472Z,994.57
2023-04-26T09:11:31.467Z,994.57
2023-04-26T09:12:31.448Z,994.63
2023-04-26T09:13:31.493Z,994.61
2023-04-26T09:14:31.446Z,994.57
2023-04-26T09:15:31.466Z,994.55
2023-04-26T09:16:31.449Z,994.54
2023-04-26T09:17:31.455Z,994.56
2023-04-26T09:18:31.401Z,994.59
2023-04-26T09:19:31.403Z,994.55
2023-04-26T09:20:31.397Z,994.53
2023-04-26T09:21:31.387Z,994.53
2023-04-26T09:22:31.385Z,994.50
2023-04-26T09:23:31.358Z,994.52
2023-04-26T09:24:31.372Z,994.46
2023-04-26T09:25:31.374Z,994.50
2023-04-26T09:26:31.342Z,994.49
2023-04-26T09:27:31.349Z,994.49
2023-04-26T09:28:31.358Z,994.54
2023-04-26T09:29:31.307Z,994.46
2023-04-26T09:30:31.316Z,994.49
2023-04-26T09:31:31.983Z,994.46
2023-04-26T09:32:31.309Z,994.45
2023-04-26T09:33:31.289Z,994.56
2023-04-26T09:34:31.283Z,994.55
2023-04-26T09:35:31.278Z,994.50
2023-04-26T09:36:31.303Z,994.47
2023-04-26T09:37:31.279Z,994.44
2023-04-26T09:38:31.256Z,994.46
2023-04-26T09:39:31.269Z,994.52
2023-04-26T09:40:31.243Z,994.43
2023-04-26T09:41:31.234Z,994.47
2023-04-26T09:42:31.547Z,994.46
2023-04-26T09:43:31.221Z,994.44
2023-04-26T09:44:31.204Z,994.42
2023-04-26T09:45:31.992Z,994.37
2023-04-26T09:46:31.214Z,994.41
2023-04-26T09:47:31.219Z,994.43
2023-04-26T09:48:31.234Z,994.44
2023-04-26T09:49:31.161Z,994.47
2023-04-26T09:50:31.190Z,994.41
2023-04-26T09:51:31.197Z,994.41
2023-04-26T09:52:31.217Z,994.48
2023-04-26T09:53:31.230Z,994.46
2023-04-26T09:54:31.105Z,994.46
2023-04-26T09:55:34.787Z,994.47
2023-04-26T09:56:32.124Z,994.47
2023-04-26T09:57:31.127Z,994.48
2023-04-26T09:58:31.084Z,994.49
2023-04-26T09:59:31.091Z,994.52
2023-04-26T10:00:31.135Z,994.57
2023-04-26T10:01:31.266Z,994.56
2023-04-26T10:02:31.252Z,994.54
2023-04-26T10:03:31.180Z,994.49
2023-04-26T10:04:31.053Z,994.49
2023-04-26T10:05:32.415Z,994.51
2023-04-26T10:06:32.081Z,994.49
2023-04-26T10:07:31.024Z,994.49
2023-04-26T10:08:31.020Z,994.45
2023-04-26T10:09:31.019Z,994.55
2023-04-26T10:10:30.987Z,994.51
2023-04-26T10:11:31.021Z,994.47
2023-04-26T10:12:30.975Z,994.52
2023-04-26T10:13:30.973Z,994.47
2023-04-26T10:14:30.961Z,994.45
2023-04-26T10:15:30.963Z,994.52
2023-04-26T10:16:30.994Z,994.43
2023-04-26T10:17:30.980Z,994.46
2023-04-26T10:18:30.936Z,994.44
2023-04-26T10:19:30.945Z,994.45
2023-04-26T10:20:31.525Z,994.49
2023-04-26T10:21:30.924Z,994.49
2023-04-26T10:22:30.906Z,994.47
2023-04-26T10:23:30.921Z,994.45
2023-04-26T10:24:31.179Z,994.47
2023-04-26T10:25:30.874Z,994.42
2023-04-26T10:26:30.912Z,994.43
2023-04-26T10:27:30.883Z,994.44
2023-04-26T10:28:30.872Z,994.43
2023-04-26T10:29:30.843Z,994.40
2023-04-26T10:30:31.520Z,994.43
2023-04-26T10:31:30.888Z,994.35
2023-04-26T10:32:30.848Z,994.32
2023-04-26T10:33:30.849Z,994.37
2023-04-26T10:34:30.800Z,994.31
2023-04-26T10:35:30.846Z,994.37
2023-04-26T10:36:30.788Z,994.32
2023-04-26T10:37:30.792Z,994.45
2023-04-26T10:38:30.773Z,994.38
2023-04-26T10:39:30.785Z,994.41
2023-04-26T10:40:31.522Z,994.37
2023-04-26T10:41:30.780Z,994.34
2023-04-26T10:42:30.758Z,994.40
2023-04-26T10:43:30.760Z,994.42
2023-04-26T10:44:30.730Z,994.38
2023-04-26T10:45:30.741Z,994.39
2023-04-26T10:46:30.793Z,994.41
2023-04-26T10:47:30.801Z,994.37
2023-04-26T10:48:30.780Z,994.36
2023-04-26T10:49:30.744Z,994.36
2023-04-26T10:50:30.700Z,994.33
2023-04-26T10:51:30.676Z,994.35
2023-04-26T10:52:30.746Z,994.36
2023-04-26T10:53:30.705Z,994.32
2023-04-26T10:54:31.682Z,994.30
2023-04-26T10:55:30.668Z,994.32
2023-04-26T10:56:30.704Z,994.31
2023-04-26T10:57:30.633Z,994.33
2023-04-26T10:58:31.746Z,994.32
2023-04-26T10:59:43.384Z,994.34
2023-04-26T11:00:33.116Z,994.36
2023-04-26T11:01:31.665Z,994.40
2023-04-26T11:02:30.672Z,994.32
2023-04-26T11:03:30.697Z,994.31
2023-04-26T11:04:32.625Z,994.32
2023-04-26T11:05:30.601Z,994.32
2023-04-26T11:06:31.456Z,994.29
2023-04-26T11:07:30.555Z,994.32
2023-04-26T11:08:30.608Z,994.26
2023-04-26T11:09:30.553Z,994.30
2023-04-26T11:10:30.574Z,994.28
2023-04-26T11:11:30.538Z,994.30
2023-04-26T11:12:30.536Z,994.23
2023-04-26T11:13:30.527Z,994.26
2023-04-26T11:14:34.475Z,994.19
2023-04-26T11:15:30.514Z,994.20
2023-04-26T11:16:31.204Z,994.18
2023-04-26T11:17:30.596Z,994.20
2023-04-26T11:18:32.303Z,994.19
2023-04-26T11:20:03.066Z,994.20
2023-04-26T11:20:30.457Z,994.17
2023-04-26T11:21:30.991Z,994.16
2023-04-26T11:22:32.034Z,994.21
2023-04-26T11:23:30.426Z,994.19
2023-04-26T11:24:30.439Z,994.16
2023-04-26T11:25:30.422Z,994.15
2023-04-26T11:26:30.397Z,994.22
2023-04-26T11:27:31.046Z,994.21
2023-04-26T11:28:33.953Z,994.19
2023-04-26T11:29:30.396Z,994.24
2023-04-26T11:30:30.374Z,994.21
2023-04-26T11:31:30.430Z,994.24
2023-04-26T11:32:31.048Z,994.23
2023-04-26T11:33:30.372Z,994.16
2023-04-26T11:34:30.343Z,994.22
2023-04-26T11:35:30.350Z,994.23
2023-04-26T11:36:30.969Z,994.19
2023-04-26T11:37:30.326Z,994.17
2023-04-26T11:38:30.319Z,994.20
2023-04-26T11:39:30.310Z,994.17
2023-04-26T11:40:30.287Z,994.16
2023-04-26T11:41:30.276Z,994.19
2023-04-26T11:42:30.297Z,994.18
2023-04-26T11:43:30.394Z,994.14
2023-04-26T11:44:30.377Z,994.22
2023-04-26T11:45:30.243Z,994.17
2023-04-26T11:46:30.259Z,994.16
2023-04-26T11:47:30.245Z,994.18
2023-04-26T11:48:30.272Z,994.12
2023-04-26T11:49:30.217Z,994.17
2023-04-26T11:50:30.224Z,994.15
2023-04-26T11:51:30.692Z,994.18
2023-04-26T11:52:30.284Z,994.14
2023-04-26T11:53:30.316Z,994.16
2023-04-26T11:54:30.158Z,994.13
2023-04-26T11:55:30.197Z,994.16
2023-04-26T11:56:30.223Z,994.10
2023-04-26T11:57:31.051Z,994.12
2023-04-26T11:58:30.145Z,994.14
2023-04-26T11:59:30.147Z,994.15
2023-04-26T12:00:30.129Z,994.13
2023-04-26T12:01:30.127Z,994.13
2023-04-26T12:02:30.271Z,994.12
2023-04-26T12:03:30.233Z,994.16
2023-04-26T12:04:31.251Z,994.19
2023-04-26T12:05:31.188Z,994.13
2023-04-26T12:06:30.083Z,994.19
2023-04-26T12:07:30.072Z,994.17
2023-04-26T12:08:30.090Z,994.15
2023-04-26T12:09:31.098Z,994.17
2023-04-26T12:10:30.100Z,994.17
2023-04-26T12:11:36.981Z,994.14
2023-04-26T12:12:30.023Z,994.09
2023-04-26T12:13:30.977Z,994.13
2023-04-26T12:14:30.004Z,994.13
2023-04-26T12:15:30.026Z,994.13
2023-04-26T12:16:30.553Z,994.14
2023-04-26T12:17:30.124Z,994.14
2023-04-26T12:18:30.044Z,994.16
2023-04-26T12:19:29.969Z,994.08
2023-04-26T12:20:29.964Z,994.11
2023-04-26T12:21:31.055Z,994.15
2023-04-26T12:22:30.951Z,994.13
2023-04-26T12:23:32.530Z,994.19
2023-04-26T12:24:30.587Z,994.16
2023-04-26T12:25:29.976Z,994.12
2023-04-26T12:26:29.927Z,994.11
2023-04-26T12:27:30.493Z,994.10
2023-04-26T12:28:29.931Z,994.16
2023-04-26T12:29:29.944Z,994.03
2023-04-26T12:30:29.883Z,994.09
2023-04-26T12:31:29.920Z,994.09